createdAt,value
2018-11-25T00:14:33.562Z,123.37
2018-11-25T00:29:38.885Z,119.83
2018-11-25T00:44:43.191Z,136.07
2018-11-25T00:59:48.327Z,129.03
2018-11-25T01:14:52.805Z,115.53
2018-11-25T01:29:56.958Z,110.63
2018-11-25T01:45:02.574Z,110.77
2018-11-25T02:00:11.729Z,99.17
2018-11-25T02:15:18.281Z,129.90
2018-11-25T02:30:23.612Z,139.53
2018-11-25T02:45:28.575Z,112.33
2018-11-25T03:00:32.843Z,118.40
2018-11-25T03:15:37.358Z,131.97
2018-11-25T03:30:43.337Z,109.80
2018-11-25T03:45:47.518Z,118.60
2018-11-25T04:00:52.834Z,105.53
2018-11-25T04:15:58.026Z,112.03
2018-11-25T04:31:19.126Z,113.73
2018-11-25T04:46:23.518Z,120.90
2018-11-25T05:01:27.717Z,113.03
2018-11-25T05:16:32.255Z,87.60
2018-11-25T05:31:37.257Z,120.37
2018-11-25T05:46:41.449Z,148.90
2018-11-25T06:01:46.117Z,116.17
2018-11-25T06:16:51.847Z,123.90
2018-11-25T06:31:57.647Z,152.17
2018-11-25T06:47:04.183Z,96.23
2018-11-25T07:02:09.020Z,89.07
2018-11-25T07:17:13.610Z,92.97
2018-11-25T07:32:18.108Z,139.40
2018-11-25T07:47:23.397Z,97.37
2018-11-25T08:02:27.865Z,116.73
2018-11-25T08:17:34.025Z,83.13
2018-11-25T08:32:38.592Z,60.40
2018-11-25T08:47:43.755Z,66.27
2018-11-25T09:02:48.846Z,63.53
2018-11-25T09:17:52.951Z,59.10
2018-11-25T09:32:57.307Z,51.77
2018-11-25T09:48:01.642Z,57.40
2018-11-25T10:03:09.301Z,47.00
2018-11-25T10:18:15.203Z,72.67
2018-11-25T10:33:19.913Z,54.93
2018-11-25T10:48:24.582Z,67.00
2018-11-25T11:03:34.040Z,61.53
2018-11-25T11:18:38.415Z,72.83
2018-11-25T11:33:43.156Z,82.03
2018-11-25T11:48:48.525Z,90.80
2018-11-25T12:03:53.123Z,74.37
2018-11-25T12:18:57.572Z,59.37
2018-11-25T12:34:02.767Z,57.87
2018-11-25T12:49:08.529Z,50.83
2018-11-25T13:04:14.223Z,107.37
2018-11-25T13:19:18.561Z,23.33
2018-11-25T13:34:24.355Z,17.33
2018-11-25T13:49:29.293Z,28.50
2018-11-25T14:04:34.264Z,34.40
2018-11-25T14:19:38.819Z,30.47
2018-11-25T14:34:43.216Z,38.00
2018-11-25T14:49:47.948Z,44.13
2018-11-25T15:04:52.560Z,38.30
2018-11-25T15:19:56.831Z,40.20
2018-11-25T15:35:01.171Z,51.50
2018-11-25T15:50:08.080Z,49.57
2018-11-25T16:05:14.841Z,71.03
2018-11-25T16:20:21.821Z,63.20
2018-11-25T16:35:27.631Z,51.80
2018-11-25T16:50:32.424Z,80.17
2018-11-25T17:05:44.241Z,108.00
2018-11-25T17:20:48.833Z,85.40
2018-11-25T17:35:53.118Z,72.43
2018-11-25T17:50:57.403Z,60.27
2018-11-25T18:06:01.992Z,92.20
2018-11-25T18:21:11.203Z,78.53
2018-11-25T18:36:16.347Z,114.07
2018-11-25T18:51:21.875Z,109.50
2018-11-25T19:06:30.702Z,101.30
2018-11-25T19:21:35.367Z,81.80
2018-11-25T19:36:40.900Z,68.67
2018-11-25T19:51:45.618Z,95.13
2018-11-25T20:06:50.865Z,81.63
2018-11-25T20:22:02.009Z,93.90
2018-11-25T20:37:06.629Z,93.40
2018-11-25T20:52:16.253Z,89.93
2018-11-25T21:07:22.548Z,95.03
2018-11-25T21:22:27.920Z,115.50
2018-11-25T21:37:33.335Z,117.43
2018-11-25T21:52:38.496Z,83.80
2018-11-25T22:07:42.721Z,85.73
2018-11-25T22:22:47.238Z,73.93
2018-11-25T22:37:54.777Z,54.13
2018-11-25T22:52:59.126Z,48.63
2018-11-25T23:08:04.664Z,51.73
2018-11-25T23:23:09.726Z,61.97
2018-11-25T23:38:15.138Z,48.77
2018-11-25T23:53:20.213Z,46.43
